Time;durP1;ratioP1;P1;durP2;ratioP2;P2;SDS_P1;SDS_P2;PMS_P1;PMS_P2;Temp;Humidity;BMP_temperature;BMP_pressure;BME280_temperature;BME280_humidity;BME280_pressure;Samples;Min_cycle;Max_cycle;Signal;HPM_P1;HPM_P2
2021/10/06 00:03:36;;;;;;;10.82;2.60;;;12.20;99.90;;;;;;12381983;28;20051;-84
2021/10/06 00:09:38;;;;;;;6.55;2.70;;;12.20;99.90;;;;;;12400315;28;20120;-84
2021/10/06 00:15:44;;;;;;;6.63;2.22;;;12.30;99.90;;;;;;12382245;28;20609;-84
2021/10/06 00:21:46;;;;;;;5.25;2.25;;;12.20;99.90;;;;;;12373225;28;20157;-84
2021/10/06 00:27:49;;;;;;;7.05;2.15;;;12.20;99.90;;;;;;12382389;28;20100;-84
2021/10/06 00:33:51;;;;;;;5.72;2.50;;;12.20;99.90;;;;;;12395501;28;20922;-84
2021/10/06 00:39:53;;;;;;;5.90;2.25;;;12.20;99.90;;;;;;12405754;28;20145;-84
2021/10/06 00:45:55;;;;;;;8.27;2.22;;;12.20;99.90;;;;;;12389085;28;20042;-84
2021/10/06 00:51:57;;;;;;;6.22;2.58;;;12.20;99.90;;;;;;12371567;28;20057;-83
2021/10/06 00:57:59;;;;;;;5.38;2.33;;;12.20;99.90;;;;;;12333283;28;20046;-84
2021/10/06 01:04:04;;;;;;;5.90;1.85;;;12.10;99.90;;;;;;12363610;28;20050;-84
2021/10/06 01:10:09;;;;;;;7.13;2.40;;;12.20;99.90;;;;;;12393115;28;20054;-83
2021/10/06 01:16:10;;;;;;;;;;;12.10;99.90;;;;;;12401283;28;20300;-83
2021/10/06 01:22:14;;;;;;;9.20;2.78;;;12.10;99.90;;;;;;12385688;28;19979;-82
2021/10/06 01:28:16;;;;;;;6.07;2.40;;;12.00;99.90;;;;;;12388942;28;20129;-83
2021/10/06 01:34:20;;;;;;;6.35;2.50;;;12.00;99.90;;;;;;12389676;28;20054;-83
2021/10/06 01:40:23;;;;;;;6.70;2.72;;;12.00;99.90;;;;;;12399724;28;20085;-84
2021/10/06 01:46:24;;;;;;;5.28;2.58;;;11.90;99.90;;;;;;12382670;28;20077;-83
2021/10/06 01:52:26;;;;;;;6.22;2.90;;;11.90;99.90;;;;;;12380693;28;20050;-84
2021/10/06 01:58:28;;;;;;;6.53;3.20;;;12.00;99.90;;;;;;12392051;28;20058;-84
2021/10/06 02:04:30;;;;;;;11.80;3.97;;;12.00;99.90;;;;;;12380856;28;20617;-83
2021/10/06 02:10:33;;;;;;;7.40;3.35;;;12.00;99.90;;;;;;12381829;28;20585;-82
2021/10/06 02:16:35;;;;;;;6.55;3.58;;;12.00;99.90;;;;;;12401244;28;20058;-83
2021/10/06 02:22:37;;;;;;;9.15;3.92;;;12.00;99.90;;;;;;12388808;28;20473;-84
2021/10/06 02:28:40;;;;;;;9.70;3.60;;;12.00;99.90;;;;;;12395119;28;20062;-84
2021/10/06 02:34:42;;;;;;;7.07;3.40;;;11.90;99.90;;;;;;12398132;28;20141;-83
2021/10/06 02:40:44;;;;;;;7.00;3.30;;;11.90;99.90;;;;;;12381972;28;20073;-83
2021/10/06 02:46:46;;;;;;;7.60;3.20;;;11.90;99.90;;;;;;12382603;28;20132;-84
2021/10/06 02:52:48;;;;;;;9.25;3.60;;;11.80;99.90;;;;;;12379636;28;20055;-84
2021/10/06 02:58:50;;;;;;;8.25;3.70;;;11.90;99.90;;;;;;12406902;28;20124;-84
2021/10/06 03:04:51;;;;;;;6.75;3.38;;;11.80;99.90;;;;;;12407953;28;20050;-83
2021/10/06 03:10:58;;;;;;;7.65;3.60;;;11.70;99.90;;;;;;12393784;28;21957;-84
2021/10/06 03:16:59;;;;;;;7.90;3.40;;;11.70;99.90;;;;;;12394520;28;20549;-84
2021/10/06 03:23:03;;;;;;;5.60;3.40;;;11.60;99.90;;;;;;12390315;28;20167;-85
2021/10/06 03:29:05;;;;;;;8.80;3.50;;;11.70;99.90;;;;;;12393656;28;20103;-85
2021/10/06 03:35:09;;;;;;;8.95;3.63;;;11.60;99.90;;;;;;12404952;28;20064;-85
2021/10/06 03:41:10;;;;;;;9.90;4.13;;;11.60;99.90;;;;;;12389371;28;20546;-84
2021/10/06 03:47:12;;;;;;;6.82;3.17;;;11.50;99.90;;;;;;12391407;28;20050;-83
2021/10/06 03:53:14;;;;;;;6.95;3.50;;;11.60;99.90;;;;;;12399495;28;20050;-84
2021/10/06 03:59:16;;;;;;;9.73;3.58;;;11.50;99.90;;;;;;12389161;28;20046;-84
2021/10/06 04:05:18;;;;;;;12.35;3.17;;;11.50;99.90;;;;;;12390317;28;20046;-85
2021/10/06 04:11:20;;;;;;;7.80;3.88;;;11.50;99.90;;;;;;12386665;28;20464;-84
2021/10/06 04:17:22;;;;;;;7.45;3.10;;;11.40;99.90;;;;;;12394586;28;20100;-85
2021/10/06 04:23:23;;;;;;;8.82;2.90;;;11.40;99.90;;;;;;12397305;28;20112;-84
2021/10/06 04:29:25;;;;;;;8.32;4.05;;;11.40;99.90;;;;;;12379548;28;20562;-84
2021/10/06 04:35:27;;;;;;;9.10;2.88;;;11.50;99.90;;;;;;12390742;28;20517;-85
2021/10/06 04:41:29;;;;;;;7.65;2.75;;;11.50;99.90;;;;;;12379256;28;20095;-83
2021/10/06 04:47:31;;;;;;;7.18;2.50;;;11.50;99.90;;;;;;12405453;28;20131;-84
2021/10/06 04:53:33;;;;;;;9.20;2.50;;;11.60;99.90;;;;;;12398413;28;20077;-82
2021/10/06 04:59:35;;;;;;;8.75;2.80;;;11.60;99.90;;;;;;12390450;28;20464;-85
2021/10/06 05:05:38;;;;;;;10.38;2.78;;;11.60;99.90;;;;;;12375034;28;20495;-84
2021/10/06 05:11:40;;;;;;;9.45;2.47;;;11.60;99.90;;;;;;12386177;28;20103;-83
2021/10/06 05:17:42;;;;;;;6.18;2.40;;;11.60;99.90;;;;;;12397220;28;20089;-84
2021/10/06 05:23:44;;;;;;;7.07;2.15;;;11.50;99.90;;;;;;12388150;28;20542;-85
2021/10/06 05:29:45;;;;;;;7.78;1.98;;;11.60;99.90;;;;;;12379909;28;20054;-85
2021/10/06 05:35:47;;;;;;;6.93;2.28;;;11.50;99.90;;;;;;12379730;28;20046;-84
2021/10/06 05:41:49;;;;;;;4.50;1.92;;;11.40;99.90;;;;;;12377520;28;20514;-84
2021/10/06 05:47:51;;;;;;;4.82;1.80;;;11.50;99.90;;;;;;12393277;28;20663;-83
2021/10/06 05:53:53;;;;;;;7.90;2.10;;;11.50;99.90;;;;;;12402443;28;20160;-85
2021/10/06 05:59:55;;;;;;;6.43;1.73;;;11.50;99.90;;;;;;12401194;28;20050;-85
2021/10/06 06:05:57;;;;;;;6.07;1.80;;;11.60;99.90;;;;;;12392235;28;20050;-84
2021/10/06 06:12:00;;;;;;;4.68;1.55;;;11.60;99.90;;;;;;12385930;28;20851;-84
2021/10/06 06:18:02;;;;;;;7.07;2.00;;;11.60;99.90;;;;;;12385385;28;20384;-84
2021/10/06 06:24:04;;;;;;;6.13;1.77;;;11.60;99.90;;;;;;12397904;28;20717;-83
2021/10/06 06:30:07;;;;;;;4.45;1.40;;;11.60;99.90;;;;;;12390220;28;20093;-84
2021/10/06 06:36:09;;;;;;;4.30;1.45;;;11.60;99.90;;;;;;12396431;28;20050;-83
2021/10/06 06:42:11;;;;;;;5.55;1.50;;;11.70;99.90;;;;;;12400390;28;20045;-83
2021/10/06 06:48:13;;;;;;;6.25;1.67;;;11.70;99.90;;;;;;12388908;28;20141;-84
2021/10/06 06:54:18;;;;;;;7.70;1.52;;;11.70;99.90;;;;;;12388270;28;20407;-83
2021/10/06 07:00:20;;;;;;;6.80;1.60;;;11.80;99.90;;;;;;12400116;28;20453;-84
2021/10/06 07:06:22;;;;;;;7.38;1.30;;;11.80;99.90;;;;;;12395997;28;20095;-84
2021/10/06 07:12:25;;;;;;;6.72;1.23;;;11.90;99.90;;;;;;12405283;28;20503;-83
2021/10/06 07:18:29;;;;;;;6.50;1.33;;;11.80;99.90;;;;;;12386651;28;20198;-84
2021/10/06 07:24:31;;;;;;;7.13;1.33;;;11.90;99.90;;;;;;12397678;28;20162;-84
2021/10/06 07:30:33;;;;;;;5.53;1.45;;;11.90;99.90;;;;;;12396612;28;20118;-83
2021/10/06 07:36:35;;;;;;;4.82;1.10;;;12.00;99.90;;;;;;12395096;28;20112;-86
2021/10/06 07:42:37;;;;;;;5.10;1.10;;;12.00;99.90;;;;;;12388012;28;20176;-85
2021/10/06 07:48:41;;;;;;;6.75;1.02;;;12.10;99.90;;;;;;12390369;28;20050;-84
2021/10/06 07:54:42;;;;;;;5.93;0.93;;;12.00;99.90;;;;;;12399200;28;20116;-84
2021/10/06 08:00:44;;;;;;;8.68;1.48;;;12.10;99.90;;;;;;12392341;28;20054;-85
2021/10/06 08:06:46;;;;;;;3.35;1.00;;;12.20;99.90;;;;;;12392385;28;20089;-85
2021/10/06 08:12:52;;;;;;;6.18;1.15;;;12.30;99.90;;;;;;12389475;28;20127;-84
2021/10/06 08:18:54;;;;;;;5.80;1.33;;;12.40;99.90;;;;;;12400811;28;21019;-84
2021/10/06 08:24:56;;;;;;;4.95;1.10;;;12.50;99.90;;;;;;12408530;28;20089;-85
2021/10/06 08:30:58;;;;;;;5.13;1.10;;;12.50;99.90;;;;;;12397856;28;20046;-84
2021/10/06 08:36:59;;;;;;;3.13;0.88;;;12.60;99.90;;;;;;12392973;28;20061;-86
2021/10/06 08:43:03;;;;;;;6.80;1.13;;;12.60;99.90;;;;;;12391394;28;20096;-83
2021/10/06 08:49:06;;;;;;;3.13;0.70;;;12.70;99.90;;;;;;12386993;28;20057;-84
2021/10/06 08:55:10;;;;;;;4.57;1.05;;;12.70;99.90;;;;;;12389948;28;20065;-84
2021/10/06 09:01:29;;;;;;;3.92;1.00;;;12.70;99.90;;;;;;12385446;28;20051;-85
2021/10/06 09:07:31;;;;;;;10.48;1.10;;;12.80;99.90;;;;;;12397767;28;20157;-85
2021/10/06 09:13:35;;;;;;;3.83;0.98;;;13.20;99.90;;;;;;12392991;28;20123;-85
2021/10/06 09:19:46;;;;;;;3.13;0.80;;;13.30;99.90;;;;;;12389475;28;20069;-84
2021/10/06 09:25:55;;;;;;;4.85;1.10;;;13.20;99.90;;;;;;12383242;28;20042;-84
2021/10/06 09:31:57;;;;;;;5.00;1.17;;;13.10;99.90;;;;;;12401393;28;20046;-84
2021/10/06 09:37:59;;;;;;;9.52;1.30;;;12.90;99.90;;;;;;12400364;28;20054;-83
2021/10/06 09:44:23;;;;;;;5.07;1.13;;;12.30;99.90;;;;;;12385658;28;20410;-83
2021/10/06 09:50:25;;;;;;;5.13;1.00;;;12.00;99.90;;;;;;12380964;28;20046;-84
2021/10/06 09:56:38;;;;;;;7.15;1.45;;;11.90;99.90;;;;;;12385438;28;20050;-85
2021/10/06 10:02:40;;;;;;;3.53;1.08;;;11.70;99.90;;;;;;12391402;28;20152;-84
2021/10/06 10:08:43;;;;;;;4.70;0.90;;;11.70;99.90;;;;;;12390676;28;20149;-83
2021/10/06 10:14:45;;;;;;;3.88;0.65;;;12.30;99.90;;;;;;12382295;28;20392;-84
2021/10/06 10:20:49;;;;;;;3.15;0.60;;;12.80;99.90;;;;;;12394704;28;20072;-83
2021/10/06 10:26:57;;;;;;;;;;;13.20;99.90;;;;;;12387320;28;20478;-83
2021/10/06 10:32:59;;;;;;;1.90;0.60;;;13.40;99.90;;;;;;12406429;28;19925;-84
2021/10/06 10:39:05;;;;;;;2.15;0.63;;;13.30;99.90;;;;;;12383296;28;20107;-86
2021/10/06 10:45:44;;;;;;;2.90;0.70;;;13.10;99.90;;;;;;12398959;28;20046;-83
2021/10/06 10:51:52;;;;;;;2.53;0.75;;;13.00;99.90;;;;;;12397587;28;20050;-84
2021/10/06 10:58:32;;;;;;;2.20;0.60;;;12.80;99.90;;;;;;12396914;28;20582;-84
2021/10/06 11:04:37;;;;;;;2.55;0.60;;;12.70;99.90;;;;;;12395091;28;20795;-85
2021/10/06 11:10:39;;;;;;;4.45;0.90;;;12.60;99.90;;;;;;12378937;28;20571;-84
2021/10/06 11:17:06;;;;;;;2.92;0.70;;;12.60;99.90;;;;;;12378236;28;20058;-83
2021/10/06 11:23:37;;;;;;;3.22;0.70;;;12.50;99.90;;;;;;12386504;28;20046;-84
2021/10/06 11:29:47;;;;;;;3.55;0.65;;;12.50;99.90;;;;;;12384408;28;20108;-83
2021/10/06 11:35:49;;;;;;;2.92;0.88;;;12.70;99.90;;;;;;12386694;28;20090;-83
2021/10/06 11:41:52;;;;;;;3.53;0.90;;;12.80;99.90;;;;;;12392120;28;20205;-84
2021/10/06 11:47:54;;;;;;;6.32;0.70;;;12.80;99.90;;;;;;12406624;28;20046;-82
2021/10/06 11:53:56;;;;;;;1.05;0.40;;;12.80;99.90;;;;;;12396193;28;20050;-85
2021/10/06 11:59:58;;;;;;;3.45;1.02;;;12.90;99.90;;;;;;12394763;28;20057;-84
2021/10/06 12:06:00;;;;;;;2.85;0.60;;;13.10;99.90;;;;;;12396259;28;20120;-85
2021/10/06 12:12:07;;;;;;;3.58;0.70;;;13.20;99.90;;;;;;12403758;28;20046;-84
2021/10/06 12:18:11;;;;;;;1.00;0.40;;;13.30;99.90;;;;;;12403948;28;20107;-83
2021/10/06 12:24:22;;;;;;;1.65;0.47;;;13.80;99.90;;;;;;12390366;28;20046;-86
2021/10/06 12:30:27;;;;;;;2.97;0.68;;;13.60;99.90;;;;;;12388161;28;20049;-83
2021/10/06 12:36:28;;;;;;;1.65;0.63;;;13.40;99.90;;;;;;12397084;28;20054;-84
2021/10/06 12:42:30;;;;;;;1.42;0.73;;;13.10;99.90;;;;;;12385111;28;20050;-83
2021/10/06 12:48:53;;;;;;;3.58;0.93;;;12.90;99.90;;;;;;12396189;28;20560;-83
2021/10/06 12:55:11;;;;;;;1.80;0.65;;;12.60;99.90;;;;;;12402289;28;20042;-84
2021/10/06 13:01:12;;;;;;;2.15;0.75;;;12.60;99.90;;;;;;12390724;28;20129;-84
2021/10/06 13:07:14;;;;;;;3.67;1.20;;;12.60;99.90;;;;;;12391797;28;20046;-84
2021/10/06 13:13:16;;;;;;;1.65;1.05;;;12.50;99.90;;;;;;12383191;28;20042;-84
2021/10/06 13:19:20;;;;;;;2.42;0.90;;;12.40;99.90;;;;;;12387414;28;20104;-84
2021/10/06 13:25:21;;;;;;;3.97;0.80;;;12.30;99.90;;;;;;12380155;28;20388;-83
2021/10/06 13:31:24;;;;;;;2.20;0.90;;;12.20;99.90;;;;;;12366033;28;20050;-86
2021/10/06 13:37:26;;;;;;;2.42;0.70;;;11.90;99.90;;;;;;12359639;28;20055;-83
2021/10/06 13:43:28;;;;;;;3.22;0.90;;;12.00;99.90;;;;;;12348708;28;20050;-84
2021/10/06 13:49:30;;;;;;;1.17;0.70;;;12.00;99.90;;;;;;12366486;28;20094;-84
2021/10/06 13:55:32;;;;;;;3.00;0.80;;;12.20;99.90;;;;;;12351191;28;20100;-84
2021/10/06 14:01:34;;;;;;;1.95;0.75;;;12.30;99.90;;;;;;12344130;28;20051;-84
2021/10/06 14:07:36;;;;;;;1.65;0.80;;;12.50;99.90;;;;;;12350024;28;20057;-82
2021/10/06 14:13:38;;;;;;;2.40;0.60;;;12.50;99.90;;;;;;12364291;28;20058;-84
2021/10/06 14:19:40;;;;;;;1.63;0.70;;;12.50;99.90;;;;;;12359648;28;20491;-84
2021/10/06 14:25:42;;;;;;;1.17;0.60;;;12.40;99.90;;;;;;12345277;28;20074;-83
2021/10/06 14:31:44;;;;;;;2.70;0.90;;;12.60;99.90;;;;;;12360986;28;20105;-83
2021/10/06 14:37:47;;;;;;;2.58;0.90;;;12.60;99.90;;;;;;12364043;28;20108;-84
2021/10/06 14:43:49;;;;;;;2.28;0.90;;;12.70;99.90;;;;;;12349228;28;20058;-85
2021/10/06 14:49:51;;;;;;;3.97;0.80;;;12.80;99.90;;;;;;12354535;28;20069;-85
2021/10/06 14:55:53;;;;;;;1.42;0.70;;;12.80;99.90;;;;;;12369932;28;20039;-84
2021/10/06 15:01:54;;;;;;;2.30;0.50;;;12.70;99.90;;;;;;12365873;28;20111;-84
2021/10/06 15:07:56;;;;;;;1.60;0.80;;;12.60;99.90;;;;;;12370598;28;20074;-83
2021/10/06 15:13:59;;;;;;;1.48;0.60;;;12.60;99.90;;;;;;12363188;28;20043;-85
2021/10/06 15:20:01;;;;;;;0.55;0.40;;;12.70;99.90;;;;;;12377867;28;20097;-84
2021/10/06 15:26:03;;;;;;;4.18;0.80;;;12.60;99.90;;;;;;12354810;28;20051;-85
2021/10/06 15:32:05;;;;;;;1.50;0.50;;;12.60;99.90;;;;;;12359020;28;20462;-85
2021/10/06 15:38:08;;;;;;;1.40;0.75;;;12.60;99.90;;;;;;12382419;28;20052;-84
2021/10/06 15:44:10;;;;;;;8.73;1.45;;;12.50;99.90;;;;;;12371327;28;20093;-84
2021/10/06 15:50:17;;;;;;;1.63;0.60;;;12.40;99.90;;;;;;12356718;28;20148;-84
2021/10/06 15:56:19;;;;;;;3.55;0.93;;;12.10;99.90;;;;;;12357823;28;20130;-83
2021/10/06 16:02:21;;;;;;;1.88;0.90;;;12.00;99.90;;;;;;12364518;28;20050;-83
2021/10/06 16:08:23;;;;;;;2.25;0.70;;;11.80;99.90;;;;;;12355193;28;20093;-84
2021/10/06 16:14:25;;;;;;;1.50;0.80;;;11.60;99.90;;;;;;12369294;28;20388;-83
2021/10/06 16:20:27;;;;;;;1.50;1.00;;;11.60;99.90;;;;;;12356378;28;20050;-83
2021/10/06 16:26:29;;;;;;;3.00;1.10;;;11.40;99.90;;;;;;12364078;28;20104;-83
2021/10/06 16:32:31;;;;;;;2.50;1.10;;;11.50;99.90;;;;;;12373318;28;20108;-83
2021/10/06 16:38:33;;;;;;;1.77;0.95;;;11.40;99.90;;;;;;12366919;28;20500;-83
2021/10/06 16:44:35;;;;;;;3.92;1.60;;;11.40;99.90;;;;;;12363089;28;20165;-83
2021/10/06 16:50:37;;;;;;;2.03;1.25;;;11.30;99.90;;;;;;12365766;28;20083;-83
2021/10/06 16:56:39;;;;;;;3.85;1.30;;;11.30;99.90;;;;;;12361670;28;20499;-83
2021/10/06 17:02:41;;;;;;;4.60;1.40;;;11.30;99.90;;;;;;12349240;28;20120;-83
2021/10/06 17:08:46;;;;;;;3.15;1.30;;;11.30;99.90;;;;;;12373794;28;20133;-82
2021/10/06 17:14:49;;;;;;;5.20;1.95;;;11.30;99.90;;;;;;12363259;28;20124;-84
2021/10/06 17:20:51;;;;;;;1.90;1.50;;;11.30;99.90;;;;;;12372363;28;20057;-84
2021/10/06 17:26:53;;;;;;;4.15;2.00;;;11.30;99.90;;;;;;12369943;28;20832;-83
2021/10/06 17:32:55;;;;;;;4.38;2.45;;;11.30;99.90;;;;;;12393990;28;20498;-83
2021/10/06 17:38:57;;;;;;;4.63;2.58;;;11.30;99.90;;;;;;12389679;28;20056;-83
2021/10/06 17:44:59;;;;;;;4.22;2.72;;;11.30;99.90;;;;;;12400856;28;20046;-82
2021/10/06 17:51:01;;;;;;;4.05;3.25;;;11.20;99.90;;;;;;12387478;28;20058;-83
2021/10/06 17:57:03;;;;;;;5.60;3.35;;;11.20;99.90;;;;;;12394768;28;20054;-84
2021/10/06 18:03:08;;;;;;;4.68;3.50;;;11.30;99.90;;;;;;12385485;28;21563;-83
2021/10/06 18:09:13;;;;;;;5.25;3.58;;;11.30;99.90;;;;;;12392977;28;20510;-83
2021/10/06 18:15:15;;;;;;;6.27;4.20;;;11.20;99.90;;;;;;12379841;28;20073;-83
2021/10/06 18:21:17;;;;;;;5.68;4.38;;;11.20;99.90;;;;;;12391444;28;20045;-83
2021/10/06 18:27:19;;;;;;;6.50;4.10;;;11.20;99.90;;;;;;12390336;28;20066;-83
2021/10/06 18:33:22;;;;;;;6.15;4.18;;;11.20;99.90;;;;;;12406070;28;20104;-83
2021/10/06 18:39:24;;;;;;;10.20;4.53;;;11.30;99.90;;;;;;12401168;28;20042;-82
2021/10/06 18:45:29;;;;;;;6.82;4.22;;;11.10;99.90;;;;;;12383589;28;20050;-84
2021/10/06 18:51:31;;;;;;;5.65;4.05;;;11.10;99.90;;;;;;12393750;28;20785;-83
2021/10/06 18:57:33;;;;;;;6.95;4.10;;;11.00;99.90;;;;;;12398579;28;20460;-83
2021/10/06 19:03:35;;;;;;;22.95;4.93;;;11.10;99.90;;;;;;12394513;28;20054;-83
2021/10/06 19:09:38;;;;;;;5.68;4.82;;;11.00;99.90;;;;;;12395444;28;20050;-83
2021/10/06 19:15:45;;;;;;;7.05;4.97;;;11.10;99.90;;;;;;12406786;28;20096;-83
2021/10/06 19:21:50;;;;;;;5.78;4.28;;;11.10;99.90;;;;;;12403442;28;20846;-84
2021/10/06 19:27:52;;;;;;;5.55;4.40;;;11.20;99.90;;;;;;12406483;28;20058;-84
2021/10/06 19:33:54;;;;;;;6.15;4.70;;;11.20;99.90;;;;;;12386667;28;20683;-84
2021/10/06 19:39:55;;;;;;;7.70;4.85;;;11.10;99.90;;;;;;12404357;28;21347;-84
2021/10/06 19:45:57;;;;;;;6.22;4.90;;;11.10;99.90;;;;;;12392107;28;20469;-84
2021/10/06 19:51:59;;;;;;;8.77;5.50;;;11.10;99.90;;;;;;12399014;28;20077;-85
2021/10/06 19:58:01;;;;;;;5.85;5.00;;;11.10;99.90;;;;;;12387086;28;20564;-85
2021/10/06 20:04:03;;;;;;;7.35;5.50;;;11.10;99.90;;;;;;12395241;28;20473;-85
2021/10/06 20:10:07;;;;;;;6.70;4.80;;;11.10;99.90;;;;;;12395681;28;20053;-84
2021/10/06 20:16:09;;;;;;;6.78;5.65;;;11.20;99.90;;;;;;12388750;28;20057;-84
2021/10/06 20:22:12;;;;;;;7.72;5.57;;;11.20;99.90;;;;;;12400393;28;20432;-83
2021/10/06 20:28:14;;;;;;;6.95;5.35;;;11.10;99.90;;;;;;12383827;28;20144;-84
2021/10/06 20:34:32;;;;;;;7.13;5.60;;;11.20;99.90;;;;;;12393411;28;20054;-85
2021/10/06 20:40:35;;;;;;;6.95;4.88;;;11.20;99.90;;;;;;12398623;28;20069;-85
2021/10/06 20:46:37;;;;;;;7.10;5.70;;;11.20;99.90;;;;;;12378894;28;20430;-85
2021/10/06 20:52:39;;;;;;;8.07;5.93;;;11.20;99.90;;;;;;12379413;28;20486;-85
2021/10/06 20:58:41;;;;;;;6.60;5.55;;;11.10;99.90;;;;;;12381661;28;20050;-85
2021/10/06 21:04:45;;;;;;;8.18;6.15;;;11.10;99.90;;;;;;12406717;28;20059;-85
2021/10/06 21:10:47;;;;;;;8.63;5.80;;;11.10;99.90;;;;;;12400466;28;20176;-85
2021/10/06 21:16:49;;;;;;;8.38;6.30;;;11.00;99.90;;;;;;12376645;28;20045;-85
2021/10/06 21:22:52;;;;;;;9.68;6.90;;;11.00;99.90;;;;;;12383134;28;20868;-85
2021/10/06 21:28:57;;;;;;;8.50;6.30;;;10.90;99.90;;;;;;12394034;28;20126;-85
2021/10/06 21:34:59;;;;;;;8.85;6.88;;;10.90;99.90;;;;;;12383242;28;20046;-85
2021/10/06 21:41:01;;;;;;;9.13;6.90;;;10.70;99.90;;;;;;12396372;28;20041;-85
2021/10/06 21:47:03;;;;;;;7.38;6.38;;;10.80;99.90;;;;;;12388125;28;20045;-85
2021/10/06 21:53:06;;;;;;;9.30;6.57;;;10.90;99.90;;;;;;12374323;28;20057;-84
2021/10/06 21:59:08;;;;;;;9.95;6.47;;;10.80;99.90;;;;;;12381669;28;20066;-85
2021/10/06 22:05:10;;;;;;;10.02;6.60;;;10.80;99.90;;;;;;12395028;28;20413;-85
2021/10/06 22:11:12;;;;;;;7.10;5.82;;;10.70;99.90;;;;;;12376786;28;20073;-85
2021/10/06 22:17:13;;;;;;;7.53;6.25;;;10.90;99.90;;;;;;12384383;28;20042;-85
2021/10/06 22:23:15;;;;;;;6.70;5.47;;;10.80;99.90;;;;;;12374988;28;20054;-85
2021/10/06 22:29:17;;;;;;;11.38;6.43;;;10.90;99.90;;;;;;12377698;28;20112;-85
2021/10/06 22:35:19;;;;;;;8.60;6.57;;;10.80;99.90;;;;;;12394802;28;20045;-85
2021/10/06 22:41:21;;;;;;;8.77;5.97;;;10.80;99.90;;;;;;12379606;28;20054;-85
2021/10/06 22:47:23;;;;;;;9.25;6.63;;;10.90;99.90;;;;;;12395129;28;20065;-85
2021/10/06 22:53:25;;;;;;;8.63;6.57;;;10.90;99.90;;;;;;12390987;28;20050;-86
2021/10/06 22:59:27;;;;;;;8.88;6.97;;;10.80;99.90;;;;;;12385375;28;20050;-84
2021/10/06 23:05:29;;;;;;;9.25;7.63;;;10.70;99.90;;;;;;12381962;28;20045;-85
2021/10/06 23:11:31;;;;;;;10.43;7.25;;;10.80;99.90;;;;;;12376994;28;20046;-85
2021/10/06 23:17:33;;;;;;;15.55;7.57;;;10.80;99.90;;;;;;12387240;28;20054;-85
2021/10/06 23:23:36;;;;;;;9.77;7.18;;;10.90;99.90;;;;;;12385422;28;20515;-85
2021/10/06 23:29:38;;;;;;;10.80;7.73;;;10.80;99.90;;;;;;12382967;28;20066;-84
2021/10/06 23:35:40;;;;;;;9.88;7.38;;;10.90;99.90;;;;;;12398099;28;20042;-85
2021/10/06 23:41:42;;;;;;;12.10;7.22;;;10.80;99.90;;;;;;12384348;28;20127;-85
2021/10/06 23:47:46;;;;;;;11.57;7.57;;;11.00;99.90;;;;;;12383147;28;20054;-84
2021/10/06 23:53:47;;;;;;;11.73;7.97;;;10.90;99.90;;;;;;12380231;28;20049;-85
2021/10/06 23:59:49;;;;;;;12.07;9.30;;;10.90;99.90;;;;;;12384456;28;20047;-85
